createdAt,value
2023-01-08T00:00:56.389Z,99749.84
2023-01-08T00:03:23.070Z,99733.69
2023-01-08T00:05:49.942Z,99732.88
2023-01-08T00:08:16.478Z,99742.81
2023-01-08T00:10:42.810Z,99731.00
2023-01-08T00:13:09.211Z,99736.38
2023-01-08T00:15:35.681Z,99742.63
2023-01-08T00:18:02.291Z,99733.69
2023-01-08T00:20:29.239Z,99740.75
2023-01-08T00:22:55.570Z,99733.50
2023-01-08T00:25:21.958Z,99725.44
2023-01-08T00:27:48.350Z,99739.53
2023-01-08T00:30:14.802Z,99733.28
2023-01-08T00:32:41.167Z,99734.97
2023-01-08T00:35:07.835Z,99733.94
2023-01-08T00:37:34.156Z,99730.41
2023-01-08T00:40:00.537Z,99730.41
2023-01-08T00:42:26.914Z,99718.63
2023-01-08T00:44:53.496Z,99722.34
2023-01-08T00:47:19.872Z,99711.59
2023-01-08T00:49:46.223Z,99711.41
2023-01-08T00:52:12.562Z,99715.09
2023-01-08T00:54:39.006Z,99712.22
2023-01-08T00:57:05.398Z,99709.53
2023-01-08T00:59:31.721Z,99703.31
2023-01-08T01:01:58.303Z,99704.97
2023-01-08T01:04:26.318Z,99703.94
2023-01-08T01:06:52.731Z,99703.09
2023-01-08T01:09:19.116Z,99692.34
2023-01-08T01:11:45.466Z,99709.31
2023-01-08T01:14:12.073Z,99701.25
2023-01-08T01:16:39.933Z,99703.09
2023-01-08T01:19:06.388Z,99699.59
2023-01-08T01:21:33.213Z,99699.59
2023-01-08T01:24:05.215Z,99699.59
2023-01-08T01:26:32.929Z,99700.22
2023-01-08T01:28:59.853Z,99678.69
2023-01-08T01:31:28.837Z,99693.81
2023-01-08T01:33:55.419Z,99686.78
2023-01-08T01:36:26.389Z,99683.03
2023-01-08T01:38:55.091Z,99690.28
2023-01-08T01:41:37.892Z,99698.19
2023-01-08T01:44:42.201Z,99688.25
2023-01-08T01:47:52.315Z,99678.28
2023-01-08T01:50:27.573Z,99671.03
2023-01-08T01:53:03.003Z,99689.06
2023-01-08T01:55:31.738Z,99699.81
2023-01-08T01:58:08.383Z,99697.13
2023-01-08T02:00:35.171Z,99691.94
2023-01-08T02:03:01.991Z,99687.41
2023-01-08T02:05:38.815Z,99697.13
2023-01-08T02:08:11.411Z,99688.25
2023-01-08T02:10:53.492Z,99665.88
2023-01-08T02:13:42.786Z,99660.50
2023-01-08T02:16:18.759Z,99674.97
2023-01-08T02:18:56.380Z,99674.97
2023-01-08T02:21:33.050Z,99673.50
2023-01-08T02:24:24.107Z,99685.09
2023-01-08T02:26:53.681Z,99657.75
2023-01-08T02:29:23.883Z,99662.50
2023-01-08T02:31:50.343Z,99671.19
2023-01-08T02:34:16.755Z,99684.19
2023-01-08T02:36:57.008Z,99684.41
2023-01-08T02:39:50.606Z,99692.00
2023-01-08T02:42:26.059Z,99673.56
2023-01-08T02:45:07.106Z,99675.44
2023-01-08T02:47:42.396Z,99681.00
2023-01-08T02:50:27.325Z,99674.16
2023-01-08T02:53:05.840Z,99666.06
2023-01-08T02:55:35.000Z,99656.53
2023-01-08T02:58:03.350Z,99652.00
2023-01-08T03:00:30.536Z,99660.28
2023-01-08T03:03:08.259Z,99641.63
2023-01-08T03:05:35.438Z,99644.53
2023-01-08T03:08:02.440Z,99642.00
2023-01-08T03:10:30.919Z,99635.81
2023-01-08T03:13:11.907Z,99630.63
2023-01-08T03:15:46.157Z,99633.53
2023-01-08T03:18:18.726Z,99631.00
2023-01-08T03:20:46.074Z,99617.97
2023-01-08T03:23:15.103Z,99623.34
2023-01-08T03:25:45.901Z,99621.69
2023-01-08T03:28:18.959Z,99619.19
2023-01-08T03:30:47.329Z,99616.72
2023-01-08T03:33:16.648Z,99604.91
2023-01-08T03:35:48.037Z,99598.69
2023-01-08T03:38:22.085Z,99596.84
2023-01-08T03:40:54.478Z,99596.00
2023-01-08T03:43:20.875Z,99584.44
2023-01-08T03:45:56.249Z,99592.28
2023-01-08T03:48:24.952Z,99580.69
2023-01-08T03:50:51.314Z,99584.44
2023-01-08T03:53:17.798Z,99574.50
2023-01-08T03:55:44.305Z,99575.31
2023-01-08T03:58:10.670Z,99573.66
2023-01-08T04:00:37.183Z,99569.94
2023-01-08T04:03:05.854Z,99572.63
2023-01-08T04:05:32.482Z,99566.22
2023-01-08T04:07:59.008Z,99577.81
2023-01-08T04:10:25.937Z,99577.59
2023-01-08T04:12:52.296Z,99573.88
2023-01-08T04:15:19.006Z,99572.03
2023-01-08T04:17:45.580Z,99568.13
2023-01-08T04:20:11.942Z,99565.44
2023-01-08T04:22:38.255Z,99568.75
2023-01-08T04:25:05.016Z,99574.56
2023-01-08T04:27:31.386Z,99577.03
2023-01-08T04:29:57.728Z,99566.94
2023-01-08T04:32:24.166Z,99570.25
2023-01-08T04:34:50.549Z,99569.84
2023-01-08T04:37:16.912Z,99573.19
2023-01-08T04:39:43.311Z,99572.13
2023-01-08T04:42:09.657Z,99558.50
2023-01-08T04:44:35.999Z,99560.97
2023-01-08T04:47:02.374Z,99556.44
2023-01-08T04:49:28.702Z,99564.31
2023-01-08T04:51:55.039Z,99559.75
2023-01-08T04:54:21.443Z,99555.22
2023-01-08T04:56:51.439Z,99552.53
2023-01-08T04:59:17.872Z,99549.84
2023-01-08T05:01:44.518Z,99547.16
2023-01-08T05:04:11.274Z,99541.75
2023-01-08T05:06:37.580Z,99540.72
2023-01-08T05:09:04.131Z,99529.97
2023-01-08T05:11:30.455Z,99533.47
2023-01-08T05:13:57.012Z,99534.09
2023-01-08T05:16:23.636Z,99535.97
2023-01-08T05:18:50.233Z,99537.63
2023-01-08T05:21:17.021Z,99531.22
2023-01-08T05:23:50.031Z,99530.19
2023-01-08T05:26:17.288Z,99538.25
2023-01-08T05:28:43.996Z,99525.84
2023-01-08T05:31:11.647Z,99524.16
2023-01-08T05:33:38.935Z,99519.59
2023-01-08T05:36:07.027Z,99512.75
2023-01-08T05:38:33.720Z,99514.00
2023-01-08T05:41:00.174Z,99503.44
2023-01-08T05:43:26.657Z,99500.75
2023-01-08T05:45:53.107Z,99502.00
2023-01-08T05:48:19.503Z,99494.09
2023-01-08T05:50:49.399Z,99507.56
2023-01-08T05:53:16.982Z,99510.47
2023-01-08T05:55:43.540Z,99509.63
2023-01-08T05:58:11.087Z,99511.47
2023-01-08T06:00:38.116Z,99502.59
2023-01-08T06:03:05.177Z,99516.03
2023-01-08T06:05:32.458Z,99503.41
2023-01-08T06:07:59.606Z,99505.91
2023-01-08T06:10:26.663Z,99505.91
2023-01-08T06:12:52.982Z,99504.03
2023-01-08T06:15:19.348Z,99499.50
2023-01-08T06:17:45.697Z,99481.47
2023-01-08T06:20:12.162Z,99487.72
2023-01-08T06:22:38.554Z,99489.38
2023-01-08T06:25:05.245Z,99485.63
2023-01-08T06:27:31.607Z,99490.81
2023-01-08T06:29:58.022Z,99474.88
2023-01-08T06:32:24.907Z,99495.16
2023-01-08T06:34:51.263Z,99483.56
2023-01-08T06:37:17.604Z,99502.22
2023-01-08T06:39:43.991Z,99501.19
2023-01-08T06:42:10.331Z,99516.50
2023-01-08T06:44:36.683Z,99509.25
2023-01-08T06:47:03.092Z,99515.47
2023-01-08T06:49:29.400Z,99515.47
2023-01-08T06:51:57.073Z,99512.75
2023-01-08T06:54:23.491Z,99506.38
2023-01-08T06:56:54.103Z,99507.59
2023-01-08T06:59:20.922Z,99512.16
2023-01-08T07:01:47.368Z,99504.28
2023-01-08T07:04:13.828Z,99512.34
2023-01-08T07:06:40.142Z,99514.22
2023-01-08T07:09:06.597Z,99520.59
2023-01-08T07:11:33.986Z,99510.88
2023-01-08T07:14:00.349Z,99519.16
2023-01-08T07:16:26.751Z,99514.81
2023-01-08T07:18:53.188Z,99510.47
2023-01-08T07:21:20.952Z,99510.47
2023-01-08T07:23:49.100Z,99507.78
2023-01-08T07:26:15.693Z,99509.63
2023-01-08T07:28:42.371Z,99513.34
2023-01-08T07:31:09.038Z,99510.47
2023-01-08T07:33:35.849Z,99508.59
2023-01-08T07:36:02.771Z,99510.25
2023-01-08T07:38:29.347Z,99542.53
2023-01-08T07:40:57.930Z,99570.09
2023-01-08T07:43:25.162Z,99568.44
2023-01-08T07:45:51.593Z,99563.44
2023-01-08T07:48:17.916Z,99565.69
2023-01-08T07:50:44.775Z,99559.91
2023-01-08T07:53:13.714Z,99544.34
2023-01-08T07:55:40.208Z,99548.66
2023-01-08T07:58:11.113Z,99536.84
2023-01-08T08:00:37.571Z,99531.22
2023-01-08T08:03:06.215Z,99535.13
2023-01-08T08:05:33.410Z,99530.53
2023-01-08T08:07:59.819Z,99530.91
2023-01-08T08:10:26.402Z,99539.22
2023-01-08T08:12:52.708Z,99533.38
2023-01-08T08:15:19.031Z,99536.28
2023-01-08T08:17:47.352Z,99544.53
2023-01-08T08:20:14.009Z,99543.88
2023-01-08T08:22:40.405Z,99554.84
2023-01-08T08:25:07.301Z,99542.63
2023-01-08T08:27:33.673Z,99533.91
2023-01-08T08:29:59.995Z,99527.91
2023-01-08T08:32:26.359Z,99529.97
2023-01-08T08:34:52.800Z,99532.66
2023-01-08T08:37:19.154Z,99528.31
2023-01-08T08:39:45.467Z,99514.88
2023-01-08T08:42:11.807Z,99510.53
2023-01-08T08:44:38.268Z,99526.66
2023-01-08T08:47:08.974Z,99520.44
2023-01-08T08:49:36.420Z,99520.63
2023-01-08T08:52:03.936Z,99532.44
2023-01-08T08:54:30.382Z,99529.91
2023-01-08T08:56:56.740Z,99531.97
2023-01-08T08:59:23.060Z,99530.72
2023-01-08T09:01:49.585Z,99520.34
2023-01-08T09:04:16.029Z,99519.91
2023-01-08T09:06:42.391Z,99510.53
2023-01-08T09:09:09.269Z,99513.59
2023-01-08T09:11:35.633Z,99504.94
2023-01-08T09:14:01.975Z,99517.50
2023-01-08T09:16:28.417Z,99522.06
2023-01-08T09:18:54.754Z,99527.44
2023-01-08T09:21:21.109Z,99522.88
2023-01-08T09:23:48.656Z,99527.25
2023-01-08T09:26:15.353Z,99525.38
2023-01-08T09:28:41.839Z,99528.91
2023-01-08T09:31:08.197Z,99519.38
2023-01-08T09:33:34.600Z,99522.25
2023-01-08T09:36:00.931Z,99524.31
2023-01-08T09:38:29.728Z,99524.50
2023-01-08T09:41:00.973Z,99514.78
2023-01-08T09:43:30.340Z,99526.56
2023-01-08T09:46:00.732Z,99515.81
2023-01-08T09:48:32.554Z,99519.31
2023-01-08T09:50:58.996Z,99519.31
2023-01-08T09:53:25.566Z,99513.75
2023-01-08T09:56:09.003Z,99514.38
2023-01-08T09:58:53.232Z,99516.69
2023-01-08T10:01:28.842Z,99514.63
2023-01-08T10:04:14.678Z,99519.44
2023-01-08T10:06:45.930Z,99523.59
2023-01-08T10:09:14.549Z,99529.44
2023-01-08T10:11:44.565Z,99522.84
2023-01-08T10:14:22.148Z,99516.25
2023-01-08T10:16:53.814Z,99512.97
2023-01-08T10:19:20.144Z,99508.41
2023-01-08T10:21:47.018Z,99502.66
2023-01-08T10:24:13.341Z,99495.03
2023-01-08T10:26:39.769Z,99490.28
2023-01-08T10:29:13.181Z,99499.41
2023-01-08T10:31:55.395Z,99494.47
2023-01-08T10:34:26.700Z,99489.75
2023-01-08T10:36:54.642Z,99488.53
2023-01-08T10:39:24.265Z,99491.63
2023-01-08T10:41:53.844Z,99480.47
2023-01-08T10:44:23.439Z,99479.25
2023-01-08T10:46:54.728Z,99473.47
2023-01-08T10:49:28.344Z,99475.75
2023-01-08T10:51:55.613Z,99466.44
2023-01-08T10:54:40.916Z,99482.81
2023-01-08T10:57:25.624Z,99476.84
2023-01-08T10:59:52.517Z,99473.97
2023-01-08T11:02:39.171Z,99461.78
2023-01-08T11:05:11.168Z,99454.97
2023-01-08T11:07:40.111Z,99457.44
2023-01-08T11:10:19.867Z,99458.72
2023-01-08T11:12:46.782Z,99453.75
2023-01-08T11:15:17.676Z,99461.22
2023-01-08T11:17:44.525Z,99449.22
2023-01-08T11:20:28.827Z,99446.75
2023-01-08T11:23:19.984Z,99436.22
2023-01-08T11:26:17.746Z,99426.28
2023-01-08T11:29:06.611Z,99422.97
2023-01-08T11:31:41.725Z,99422.38
2023-01-08T11:34:18.284Z,99418.84
2023-01-08T11:36:52.215Z,99421.97
2023-01-08T11:39:19.374Z,99420.72
2023-01-08T11:42:11.448Z,99421.97
2023-01-08T11:44:55.856Z,99418.84
2023-01-08T11:47:52.112Z,99411.22
2023-01-08T11:50:32.127Z,99414.16
2023-01-08T11:53:07.504Z,99400.06
2023-01-08T11:55:47.451Z,99397.53
2023-01-08T11:58:35.207Z,99391.34
2023-01-08T12:01:40.098Z,99390.09
2023-01-08T12:04:06.476Z,99387.16
2023-01-08T12:06:40.321Z,99376.78
2023-01-08T12:09:24.588Z,99373.66
2023-01-08T12:11:57.003Z,99362.88
2023-01-08T12:14:49.781Z,99357.44
2023-01-08T12:17:40.535Z,99354.75
2023-01-08T12:20:17.432Z,99340.38
2023-01-08T12:22:59.044Z,99335.63
2023-01-08T12:25:41.073Z,99336.81
2023-01-08T12:28:32.403Z,99336.00
2023-01-08T12:31:13.860Z,99330.16
2023-01-08T12:33:51.117Z,99327.84
2023-01-08T12:36:43.118Z,99324.72
2023-01-08T12:39:18.751Z,99319.94
2023-01-08T12:41:46.886Z,99322.44
2023-01-08T12:44:22.577Z,99303.56
2023-01-08T12:46:50.707Z,99302.50
2023-01-08T12:49:26.787Z,99298.97
2023-01-08T12:52:16.080Z,99301.44
2023-01-08T12:54:51.575Z,99290.66
2023-01-08T12:57:44.646Z,99285.66
2023-01-08T13:00:37.888Z,99284.41
2023-01-08T13:03:10.822Z,99275.25
2023-01-08T13:05:37.884Z,99271.72
2023-01-08T13:08:21.837Z,99260.69
2023-01-08T13:10:52.208Z,99258.63
2023-01-08T13:13:39.741Z,99257.59
2023-01-08T13:16:06.991Z,99252.19
2023-01-08T13:18:33.811Z,99249.91
2023-01-08T13:21:02.170Z,99250.97
2023-01-08T13:23:32.054Z,99247.88
2023-01-08T13:26:00.474Z,99248.34
2023-01-08T13:28:28.761Z,99248.75
2023-01-08T13:31:06.577Z,99242.97
2023-01-08T13:33:36.148Z,99238.63
2023-01-08T13:36:17.557Z,99241.75
2023-01-08T13:38:45.149Z,99240.53
2023-01-08T13:41:57.900Z,99241.59
2023-01-08T13:44:30.052Z,99230.38
2023-01-08T13:46:59.043Z,99230.22
2023-01-08T13:49:31.493Z,99228.38
2023-01-08T13:51:57.940Z,99224.91
2023-01-08T13:54:38.863Z,99234.69
2023-01-08T13:57:12.252Z,99256.50
2023-01-08T13:59:48.231Z,99254.47
2023-01-08T14:02:50.599Z,99260.94
2023-01-08T14:05:26.472Z,99238.81
2023-01-08T14:07:52.964Z,99232.66
2023-01-08T14:10:20.521Z,99228.94
2023-01-08T14:12:47.730Z,99217.34
2023-01-08T14:15:25.658Z,99216.13
2023-01-08T14:17:53.271Z,99219.88
2023-01-08T14:20:26.447Z,99225.25
2023-01-08T14:22:52.894Z,99223.19
2023-01-08T14:25:20.075Z,99220.69
2023-01-08T14:27:55.618Z,99225.47
2023-01-08T14:30:22.134Z,99223.16
2023-01-08T14:32:49.136Z,99219.22
2023-01-08T14:35:20.798Z,99216.53
2023-01-08T14:37:47.132Z,99214.03
2023-01-08T14:40:15.673Z,99218.22
2023-01-08T14:42:44.401Z,99224.44
2023-01-08T14:45:26.951Z,99225.25
2023-01-08T14:47:56.435Z,99224.81
2023-01-08T14:50:26.565Z,99231.47
2023-01-08T14:52:57.565Z,99226.72
2023-01-08T14:55:25.362Z,99219.22
2023-01-08T14:57:54.876Z,99223.56
2023-01-08T15:00:26.447Z,99221.69
2023-01-08T15:02:52.867Z,99226.81
2023-01-08T15:05:31.031Z,99225.50
2023-01-08T15:08:32.480Z,99227.97
2023-01-08T15:11:02.004Z,99219.44
2023-01-08T15:13:33.895Z,99218.81
2023-01-08T15:16:07.080Z,99211.09
2023-01-08T15:18:43.102Z,99215.81
2023-01-08T15:21:09.823Z,99219.50
2023-01-08T15:23:46.330Z,99218.63
2023-01-08T15:26:14.694Z,99214.44
2023-01-08T15:28:58.749Z,99213.59
2023-01-08T15:31:41.289Z,99213.53
2023-01-08T15:34:08.221Z,99209.13
2023-01-08T15:36:34.741Z,99203.53
2023-01-08T15:39:01.061Z,99204.31
2023-01-08T15:41:56.802Z,99199.53
2023-01-08T15:44:24.731Z,99201.78
2023-01-08T15:46:52.260Z,99197.00
2023-01-08T15:49:18.633Z,99198.44
2023-01-08T15:51:51.074Z,99191.59
2023-01-08T15:54:19.105Z,99200.22
2023-01-08T15:56:45.424Z,99198.75
2023-01-08T15:59:12.141Z,99193.97
2023-01-08T16:01:38.691Z,99196.00
2023-01-08T16:04:05.137Z,99192.91
2023-01-08T16:06:31.866Z,99199.47
2023-01-08T16:09:00.264Z,99197.84
2023-01-08T16:11:26.860Z,99192.47
2023-01-08T16:13:53.274Z,99195.97
2023-01-08T16:16:20.865Z,99187.72
2023-01-08T16:18:47.314Z,99191.88
2023-01-08T16:21:13.787Z,99193.53
2023-01-08T16:23:41.335Z,99196.22
2023-01-08T16:26:12.575Z,99198.09
2023-01-08T16:28:39.016Z,99192.25
2023-01-08T16:31:06.156Z,99195.34
2023-01-08T16:33:32.974Z,99194.91
2023-01-08T16:36:01.991Z,99196.28
2023-01-08T16:38:28.927Z,99191.69
2023-01-08T16:40:59.665Z,99181.53
2023-01-08T16:43:29.010Z,99182.09
2023-01-08T16:45:56.196Z,99186.38
2023-01-08T16:48:23.774Z,99190.66
2023-01-08T16:50:50.201Z,99178.47
2023-01-08T16:53:21.520Z,99187.06
2023-01-08T16:55:50.756Z,99182.75
2023-01-08T16:58:17.200Z,99174.88
2023-01-08T17:00:43.658Z,99176.56
2023-01-08T17:03:10.164Z,99173.88
2023-01-08T17:05:36.879Z,99171.81
2023-01-08T17:08:03.447Z,99171.81
2023-01-08T17:10:29.877Z,99166.47
2023-01-08T17:12:56.241Z,99169.16
2023-01-08T17:15:22.652Z,99168.31
2023-01-08T17:17:49.090Z,99171.81
2023-01-08T17:20:15.597Z,99165.84
2023-01-08T17:22:41.992Z,99169.53
2023-01-08T17:25:08.870Z,99164.38
2023-01-08T17:27:35.516Z,99167.25
2023-01-08T17:30:02.248Z,99167.63
2023-01-08T17:32:30.227Z,99156.47
2023-01-08T17:34:56.668Z,99157.69
2023-01-08T17:37:23.010Z,99152.69
2023-01-08T17:39:49.528Z,99153.72
2023-01-08T17:42:24.800Z,99150.22
2023-01-08T17:44:51.628Z,99150.00
2023-01-08T17:47:19.810Z,99142.81
2023-01-08T17:49:54.648Z,99142.44
2023-01-08T17:52:23.208Z,99142.22
2023-01-08T17:54:51.396Z,99135.50
2023-01-08T17:57:19.276Z,99141.28
2023-01-08T17:59:46.498Z,99137.22
2023-01-08T18:02:16.038Z,99133.97
2023-01-08T18:04:43.774Z,99139.75
2023-01-08T18:07:10.134Z,99132.16
2023-01-08T18:09:36.889Z,99129.94
2023-01-08T18:12:03.562Z,99127.69
2023-01-08T18:14:29.949Z,99129.97
2023-01-08T18:16:56.471Z,99126.72
2023-01-08T18:19:23.010Z,99124.47
2023-01-08T18:21:49.346Z,99117.91
2023-01-08T18:24:15.988Z,99113.22
2023-01-08T18:26:43.218Z,99123.53
2023-01-08T18:29:09.569Z,99113.63
2023-01-08T18:31:36.635Z,99116.94
2023-01-08T18:34:03.809Z,99108.91
2023-01-08T18:36:30.302Z,99116.13
2023-01-08T18:38:57.751Z,99115.31
2023-01-08T18:41:42.983Z,99114.03
2023-01-08T18:44:10.185Z,99111.91
2023-01-08T18:46:37.443Z,99114.34
2023-01-08T18:49:04.845Z,99113.25
2023-01-08T18:51:31.247Z,99110.34
2023-01-08T18:53:57.982Z,99111.75
2023-01-08T18:56:29.401Z,99103.06
2023-01-08T18:58:56.479Z,99098.94
2023-01-08T19:01:23.823Z,99106.97
2023-01-08T19:03:50.255Z,99097.06
2023-01-08T19:06:17.580Z,99097.91
2023-01-08T19:08:45.463Z,99087.81
2023-01-08T19:11:11.916Z,99083.09
2023-01-08T19:13:38.780Z,99085.59
2023-01-08T19:16:11.137Z,99075.53
2023-01-08T19:18:38.564Z,99071.38
2023-01-08T19:21:06.960Z,99074.25
2023-01-08T19:23:33.910Z,99063.91
2023-01-08T19:26:04.466Z,99058.94
2023-01-08T19:28:30.826Z,99061.38
2023-01-08T19:30:58.901Z,99060.09
2023-01-08T19:33:25.677Z,99058.19
2023-01-08T19:35:52.282Z,99055.91
2023-01-08T19:38:19.232Z,99047.63
2023-01-08T19:40:45.725Z,99046.34
2023-01-08T19:43:31.196Z,99043.41
2023-01-08T19:46:05.024Z,99033.09
2023-01-08T19:48:31.619Z,99026.47
2023-01-08T19:50:57.958Z,99032.41
2023-01-08T19:53:24.333Z,99030.28
2023-01-08T19:55:50.729Z,99023.66
2023-01-08T19:58:18.514Z,99018.69
2023-01-08T20:00:44.951Z,99016.41
2023-01-08T20:03:11.366Z,99019.66
2023-01-08T20:05:42.102Z,99019.84
2023-01-08T20:08:08.411Z,99010.53
2023-01-08T20:10:34.861Z,99010.09
2023-01-08T20:13:01.201Z,99013.16
2023-01-08T20:15:28.903Z,99008.38
2023-01-08T20:17:55.317Z,99007.72
2023-01-08T20:20:21.656Z,98997.41
2023-01-08T20:22:48.259Z,99002.13
2023-01-08T20:25:14.777Z,98997.97
2023-01-08T20:27:41.173Z,98999.19
2023-01-08T20:30:10.248Z,98993.41
2023-01-08T20:32:36.860Z,98993.56
2023-01-08T20:35:04.739Z,98990.47
2023-01-08T20:37:31.190Z,98980.97
2023-01-08T20:39:57.723Z,98984.03
2023-01-08T20:42:33.335Z,98987.06
2023-01-08T20:45:00.616Z,98975.75
2023-01-08T20:47:27.010Z,98968.09
2023-01-08T20:49:53.371Z,98971.78
2023-01-08T20:52:19.673Z,98965.59
2023-01-08T20:54:46.149Z,98959.44
2023-01-08T20:57:12.569Z,98963.94
2023-01-08T20:59:38.912Z,98954.47
2023-01-08T21:02:06.110Z,98948.28
2023-01-08T21:04:32.809Z,98956.50
2023-01-08T21:06:59.192Z,98944.31
2023-01-08T21:09:25.601Z,98943.50
2023-01-08T21:11:52.083Z,98934.84
2023-01-08T21:14:18.455Z,98942.03
2023-01-08T21:16:44.950Z,98940.84
2023-01-08T21:19:11.558Z,98937.94
2023-01-08T21:21:40.276Z,98937.22
2023-01-08T21:24:08.942Z,98940.97
2023-01-08T21:26:36.997Z,98927.66
2023-01-08T21:29:05.856Z,98931.22
2023-01-08T21:31:32.931Z,98927.59
2023-01-08T21:34:00.253Z,98923.16
2023-01-08T21:36:28.671Z,98914.16
2023-01-08T21:38:59.360Z,98910.53
2023-01-08T21:41:46.347Z,98900.06
2023-01-08T21:44:37.541Z,98894.56
2023-01-08T21:47:06.715Z,98879.38
2023-01-08T21:49:33.104Z,98871.78
2023-01-08T21:52:17.914Z,98866.22
2023-01-08T21:54:44.239Z,98858.19
2023-01-08T21:57:10.896Z,98863.75
2023-01-08T21:59:37.459Z,98852.41
2023-01-08T22:02:05.134Z,98847.25
2023-01-08T22:04:31.690Z,98854.03
2023-01-08T22:06:58.886Z,98843.72
2023-01-08T22:09:25.231Z,98834.41
2023-01-08T22:11:51.551Z,98833.19
2023-01-08T22:14:18.122Z,98836.22
2023-01-08T22:16:44.510Z,98827.94
2023-01-08T22:19:10.991Z,98816.63
2023-01-08T22:21:39.097Z,98817.84
2023-01-08T22:24:06.080Z,98808.97
2023-01-08T22:26:35.009Z,98815.34
2023-01-08T22:29:02.660Z,98812.69
2023-01-08T22:31:29.087Z,98806.31
2023-01-08T22:33:56.411Z,98797.28
2023-01-08T22:36:23.176Z,98808.59
2023-01-08T22:38:49.580Z,98791.53
2023-01-08T22:41:21.563Z,98791.34
2023-01-08T22:43:48.252Z,98797.28
2023-01-08T22:46:16.213Z,98786.59
2023-01-08T22:48:43.787Z,98782.09
2023-01-08T22:51:10.841Z,98781.06
2023-01-08T22:53:37.591Z,98772.00
2023-01-08T22:56:11.875Z,98777.16
2023-01-08T22:58:42.316Z,98771.81
2023-01-08T23:01:18.126Z,98772.63
2023-01-08T23:03:44.681Z,98767.72
2023-01-08T23:06:16.274Z,98765.88
2023-01-08T23:08:44.449Z,98761.13
2023-01-08T23:11:14.157Z,98757.22
2023-01-08T23:13:41.229Z,98766.13
2023-01-08T23:16:11.380Z,98764.69
2023-01-08T23:18:39.455Z,98756.25
2023-01-08T23:21:11.599Z,98754.66
2023-01-08T23:23:38.152Z,98746.00
2023-01-08T23:26:12.483Z,98748.91
2023-01-08T23:28:39.655Z,98743.78
2023-01-08T23:31:11.314Z,98744.00
2023-01-08T23:33:37.749Z,98743.59
2023-01-08T23:36:05.434Z,98749.00
2023-01-08T23:38:31.929Z,98744.88
2023-01-08T23:40:58.489Z,98741.59
2023-01-08T23:43:25.277Z,98739.13
2023-01-08T23:45:51.755Z,98730.69
2023-01-08T23:48:18.647Z,98738.31
2023-01-08T23:50:45.024Z,98731.53
2023-01-08T23:53:11.401Z,98733.81
2023-01-08T23:55:37.840Z,98732.59
2023-01-08T23:58:04.233Z,98728.47
